Friday, February 23, 2018, 3:19 PM EST
Back to Local

KADW, Camp Springs / Andrews Air Force Base

Location: Andrews Air Force Base, MD, United States Lat: 38.817
Local Time: 3:19 PM EST (20:19 GMT) Lon: -76.85
Time Zone: US/Eastern Elev: 282 ft

Show me the last for .
Show Coded

Time T Td Feel RH Dir Speed Gust Alt SLP Vis Weather Sky Remarks
2018-02-23 14:41 45 41 43 87 170° 3 - 30.40 30.42 10 OVC008 None
2018-02-23 14:36 45 43 42 93 170° 5 - 30.40 30.42 10 OVC004 None
2018-02-23 14:31 45 43 41 93 140° 7 - 30.39 30.42 10 OVC004 None
2018-02-23 14:26 45 43 40 93 160° 8 - 30.40 30.42 10 OVC004 None
2018-02-23 14:16 45 43 40 93 150° 8 - 30.40 30.42 10 OVC005 None
2018-02-23 13:56 44 42 39 92 120° 8 - 30.41 30.44 10 OVC006 Pressure falling rapidly
2018-02-23 13:39 43 41 39 93 120° 6 - 30.43 30.46 10 OVC006 None
2018-02-23 13:19 43 41 41 93 130° 3 - 30.45 30.47 6 BR OVC005 None
2018-02-23 12:56 42 40 - 93 - Calm - 30.47 30.50 6 BR OVC006 6-hr Precip Total (1pm): 0.00"
6-hr Min Temp (1pm): 38.8°F
6-hr Max Temp (1pm): 42.4°F
2018-02-23 12:44 43 41 - 93 - Calm - 30.48 30.51 7 OVC006 None
2018-02-23 12:37 43 41 - 93 - Calm - 30.48 30.51 6 BR OVC006 None
2018-02-23 12:22 43 41 - 93 - Calm - 30.49 30.52 4 BR BKN005 OVC010 None
2018-02-23 12:21 41 41 - 100 - Calm - 30.49 30.52 5 BR OVC006 None
2018-02-23 12:01 43 41 41 93 120° 3 - 30.50 30.53 4 BR OVC007 None
2018-02-23 11:56 42 40 39 93 110° 5 - 30.50 30.53 3 BR BKN004 OVC009 None
2018-02-23 11:39 41 41 37 100 110° 6 - 30.51 30.54 3 BR OVC004 None
2018-02-23 11:35 41 39 38 93 120° 5 - 30.51 30.54 2 BR OVC004 Variable visibility
2018-02-23 11:31 41 39 38 93 90° 5 - 30.52 30.55 3 BR None
2018-02-23 11:26 41 39 38 93 120° 5 - 30.52 30.55 4 BR OVC004 None
2018-02-23 11:21 41 39 38 93 110° 5 - 30.52 30.55 4 BR OVC004 None
2018-02-23 11:16 41 39 38 93 100° 5 - 30.53 30.55 5 BR OVC005 None
2018-02-23 11:11 41 39 37 93 110° 6 - 30.52 30.55 7 OVC005 None
2018-02-23 10:56 41 40 37 93 110° 7 - 30.53 30.55 6 BR OVC005 None
2018-02-23 10:27 41 39 37 93 80° 6 - 30.54 30.57 7 OVC005 None
2018-02-23 10:21 41 39 38 93 90° 5 - 30.54 30.57 8 OVC006 None
2018-02-23 10:11 41 39 38 93 100° 5 - 30.54 30.57 10 OVC005 None
2018-02-23 10:06 41 39 38 93 90° 5 - 30.55 30.58 10 OVC005 None
2018-02-23 10:01 - - - 0 80° 5 - 30.56 - 10 OVC005 None
2018-02-23 09:56 40 39 37 93 60° 5 - 30.56 30.59 10 OVC005 6-hr Precip Total (10am): 0.00"
2018-02-23 09:44 41 39 39 93 110° 3 - 30.56 30.59 10 OVC005 None
2018-02-23 09:34 41 39 38 93 80° 5 - 30.56 30.59 10 OVC004 None
2018-02-23 09:29 39 39 36 100 70° 5 - 30.56 30.59 9 OVC005 None
2018-02-23 09:24 41 39 37 93 70° 6 - 30.56 30.59 8 OVC005 None
2018-02-23 09:09 39 39 36 100 90° 5 - 30.56 30.59 5 BR OVC005 None
2018-02-23 08:56 39 38 35 93 60° 6 - 30.56 30.59 5 BR OVC004 1-hr Precip Total: Trace
2018-02-23 08:03 39 37 35 93 70° 6 - 30.57 30.60 3 BR OVC004 None
2018-02-23 07:56 39 37 35 93 60° 6 - 30.58 30.60 3 -RA BR OVC004 1-hr Precip Total: Trace
2018-02-23 07:47 39 37 35 93 50° 6 - 30.58 30.60 4 -RA BR OVC004 None
2018-02-23 07:21 39 37 34 93 80° 7 - 30.57 30.60 5 BR OVC005 None
2018-02-23 06:56 39 37 35 93 70° 6 - 30.55 30.58 4 BR BKN004 OVC009 1-hr Precip Total: Trace
6-hr Precip Total (7am): 0.00"
24-hr Precip Total (7am): 0.06"
6-hr Min Temp (7am): 39.0°F
6-hr Max Temp (7am): 40.5°F
2018-02-23 06:13 39 37 34 93 60° 8 - 30.56 30.58 4 BR OVC004 None
2018-02-23 05:59 39 37 34 93 50° 7 - 30.56 30.58 3 -RA BR OVC004 None
2018-02-23 05:56 39 37 33 93 60° 8 - 30.55 30.58 3 BR OVC004 None
2018-02-23 05:25 39 37 36 93 50° 5 - 30.56 30.58 4 BR OVC004 None
2018-02-23 05:00 39 37 35 93 70° 6 - 30.56 30.58 7 OVC005 None
2018-02-23 04:56 39 38 34 93 60° 7 - 30.56 30.58 7 OVC006 None
2018-02-23 04:36 39 37 34 93 70° 8 - 30.56 30.58 7 OVC006 None
2018-02-23 04:11 39 37 35 93 60° 6 - 30.57 30.60 8 OVC007 None
2018-02-23 03:56 40 37 35 89 60° 7 - 30.56 30.58 10 OVC008 1-hr Precip Total: Trace
6-hr Precip Total (4am): 0.00"
2018-02-23 03:31 39 37 34 93 70° 8 - 30.57 30.60 10 OVC009 None
2018-02-23 03:21 39 36 35 86 70° 6 - 30.58 30.60 10 OVC010 None
2018-02-23 03:11 39 36 35 86 50° 6 - 30.57 30.60 10 -RA OVC010 None
2018-02-23 02:56 40 37 35 89 50° 7 - 30.58 - 10 -DZ OVC009 None
2018-02-23 02:53 39 37 35 93 60° 6 - 30.58 30.60 10 -DZ OVC009 None
2018-02-23 02:17 39 37 34 93 60° 8 - 30.57 30.59 7 -DZ OVC007 None
2018-02-23 01:56 40 37 35 88 60° 7 - 30.58 30.60 7 -DZ BKN008 OVC013 None
2018-02-23 01:54 39 37 34 93 60° 7 - 30.58 30.60 7 -DZ BKN008 OVC013 None
2018-02-23 01:51 41 37 36 86 50° 7 - 30.58 30.60 10 BKN008 OVC013 None
2018-02-23 01:21 41 37 37 86 50° 6 - 30.58 30.60 10 OVC010 None
2018-02-23 01:11 41 37 36 86 50° 7 - 30.59 30.61 10 OVC010 None
2018-02-23 00:56 40 37 34 88 80° 9 - 30.58 30.60 10 OVC010 6-hr Min Temp (1am): 40.3°F
6-hr Max Temp (1am): 43.9°F
2018-02-22 23:56 41 37 34 86 80° 12 - 30.58 30.60 10 OVC010 24-hr Min Temp (12am): 40.6°F
24-hr Max Temp (12am): 65.3°F
2018-02-22 23:21 41 37 35 86 80° 10 - 30.58 30.60 10 OVC010 None
2018-02-22 22:56 41 38 34 88 60° 12 - 30.59 30.61 10 OVC009 None
2018-02-22 22:51 41 37 35 86 70° 10 - 30.59 30.61 10 OVC009 None
2018-02-22 22:26 41 37 35 86 50° 10 - 30.59 30.61 10 OVC010 None
2018-02-22 21:56 41 38 35 88 60° 10 - 30.57 30.59 10 OVC009 None
2018-02-22 20:56 42 39 36 90 60° 10 - 30.56 30.58 10 OVC009 None
2018-02-22 19:56 42 40 37 90 50° 9 - 30.55 30.57 10 OVC008 None
2018-02-22 19:26 43 41 34 93 50° 14 22 30.54 30.56 10 OVC008 None
2018-02-22 18:56 44 42 36 92 60° 17 - 30.53 30.55 10 OVC007 1-hr Precip Total: 0.05"
6-hr Precip Total (7pm): 0.06"
6-hr Min Temp (7pm): 44.1°F
6-hr Max Temp (7pm): 52.9°F
2018-02-22 18:45 45 43 36 93 50° 13 22 30.53 30.55 10 OVC006 None
2018-02-22 18:42 45 43 36 93 60° 16 22 30.53 30.55 10 -DZ OVC006 None
2018-02-22 18:37 45 43 39 93 60° 12 - 30.52 30.54 10 -RA OVC005 None
2018-02-22 18:31 45 43 38 93 50° 14 - 30.52 30.54 10 -RA OVC006 None
2018-02-22 18:26 45 45 39 100 60° 10 - 30.53 30.55 9 -RA OVC005 None
2018-02-22 18:21 46 45 41 93 50° 13 - 30.52 30.54 6 -RA BR OVC004 None
2018-02-22 18:01 46 45 41 93 50° 13 - 30.51 30.53 3 -RA BR OVC005 Wind Shift: 58 min
2018-02-22 17:57 46 45 40 93 70° 14 - 30.51 30.53 3 -RA BR OVC004 Wind Shift: 53 min
2018-02-22 17:56 46 45 40 94 30° 14 - 30.52 30.54 3 -RA BR OVC004 1-hr Precip Total: 0.01"
2018-02-22 17:33 46 45 41 93 30° 13 - 30.51 30.53 3 -RA BR OVC004 None
2018-02-22 17:23 46 45 42 93 40° 8 - 30.51 30.53 3 -RA BR BKN005 BKN009 OVC014 None
2018-02-22 17:21 46 45 41 93 30° 10 - 30.51 30.53 2 -RA BR BKN005 BKN009 OVC014 None
2018-02-22 17:15 46 45 41 93 20° 12 - 30.51 30.53 3 -RA BR BKN005 BKN009 OVC014 None
2018-02-22 17:05 46 45 41 93 30° 12 - 30.50 - 2 -RA BR BKN005 BKN011 OVC016 Variable visibility
2018-02-22 16:56 47 45 43 92 30° 10 - 30.50 30.52 4 -DZ BR BKN005 BKN011 OVC019 1-hr Precip Total: Trace
2018-02-22 16:53 48 45 44 87 40° 9 - 30.50 30.52 5 -DZ BR BKN005 BKN011 OVC019 None
2018-02-22 16:40 48 46 44 93 40° 9 - 30.49 30.51 4 BR BKN005 OVC012 None
2018-02-22 16:05 48 46 44 93 40° 9 - 30.46 30.48 4 -DZ BR BKN005 OVC012 None
2018-02-22 15:56 49 46 45 90 40° 8 - 30.46 30.48 4 -DZ BR BKN006 OVC012 1-hr Precip Total: Trace
6-hr Precip Total (4pm): 0.00"
2018-02-22 15:50 48 46 45 93 30° 8 - 30.46 30.48 3 -DZ BR BKN006 OVC012 None
2018-02-22 15:45 48 46 44 93 40° 9 - 30.45 30.47 3 -DZ BR BKN010 OVC014 None
2018-02-22 15:36 48 46 44 93 50° 9 - 30.45 30.47 2 -RA BR OVC012 Variable visibility
2018-02-22 15:28 50 45 46 81 50° 10 - 30.45 30.47 6 -DZ BR BKN010 OVC014 None
2018-02-22 15:26 50 45 46 81 50° 10 - 30.45 30.47 7 OVC010 None
2018-02-22 15:21 50 45 46 81 40° 9 - 30.45 30.47 10 OVC011 None

Support USWX by starting your Amazon purchase here.